createdAt,value
2023-04-02T01:13:30.738Z,75.40
2023-04-02T01:16:30.008Z,75.40
2023-04-02T01:19:27.460Z,75.40
2023-04-02T01:22:06.977Z,75.30
2023-04-02T01:24:37.456Z,75.20
2023-04-02T01:27:25.896Z,75.30
2023-04-02T01:29:58.765Z,75.30
2023-04-02T01:32:29.606Z,75.40
2023-04-02T01:34:58.349Z,75.30
2023-04-02T01:37:56.472Z,75.30
2023-04-02T01:40:38.932Z,74.90
2023-04-02T01:43:28.746Z,75.10
2023-04-02T01:45:58.446Z,75.00
2023-04-02T01:48:30.164Z,75.00
2023-04-02T01:50:59.537Z,75.10
2023-04-02T01:53:30.887Z,74.80
2023-04-02T01:56:01.102Z,75.00
2023-04-02T01:58:31.747Z,75.10
2023-04-02T02:01:04.048Z,75.00
2023-04-02T02:03:32.384Z,75.00
2023-04-02T02:06:01.601Z,75.00
2023-04-02T02:08:38.605Z,75.00
2023-04-02T02:11:08.045Z,74.90
2023-04-02T02:13:34.960Z,74.70
2023-04-02T02:16:04.420Z,74.80
2023-04-02T02:18:31.617Z,75.00
2023-04-02T02:21:00.286Z,74.80
2023-04-02T02:23:29.891Z,74.50
2023-04-02T02:25:56.888Z,74.50
2023-04-02T02:28:31.327Z,74.50
2023-04-02T02:31:12.928Z,74.40
2023-04-02T02:33:50.309Z,74.40
2023-04-02T02:36:24.727Z,74.60
2023-04-02T02:39:20.402Z,74.30
2023-04-02T02:41:57.766Z,74.40
2023-04-02T02:44:29.290Z,74.30
2023-04-02T02:47:10.129Z,74.30
2023-04-02T02:49:41.939Z,74.30
2023-04-02T02:52:08.909Z,74.10
2023-04-02T02:54:53.076Z,73.90
2023-04-02T02:57:28.725Z,74.00
2023-04-02T02:59:58.703Z,73.90
2023-04-02T03:02:27.751Z,73.80
2023-04-02T03:04:56.247Z,73.90
2023-04-02T03:07:27.524Z,73.90
2023-04-02T03:10:14.517Z,74.00
2023-04-02T03:12:47.309Z,73.90
2023-04-02T03:15:20.440Z,73.90
2023-04-02T03:17:55.808Z,73.90
2023-04-02T03:20:38.226Z,73.90
2023-04-02T03:23:24.368Z,73.60
2023-04-02T03:26:24.773Z,73.60
2023-04-02T03:29:13.521Z,73.40
2023-04-02T03:31:47.411Z,73.40
2023-04-02T03:34:54.086Z,73.50
2023-04-02T03:37:27.800Z,73.60
2023-04-02T03:40:07.519Z,73.50
2023-04-02T03:42:56.867Z,73.20
2023-04-02T03:45:32.273Z,73.00
2023-04-02T03:48:03.211Z,73.00
2023-04-02T03:50:44.125Z,73.10
2023-04-02T03:53:12.862Z,73.40
2023-04-02T03:55:41.994Z,73.50
2023-04-02T03:58:18.287Z,73.30
2023-04-02T04:00:49.667Z,73.30
2023-04-02T04:03:31.622Z,73.20
2023-04-02T04:06:27.892Z,73.30
2023-04-02T04:09:10.075Z,73.20
2023-04-02T04:11:44.443Z,73.10
2023-04-02T04:14:29.435Z,73.20
2023-04-02T04:17:09.488Z,73.20
2023-04-02T04:19:37.308Z,73.10
2023-04-02T04:22:18.031Z,73.10
2023-04-02T04:24:47.956Z,72.90
2023-04-02T04:27:24.197Z,72.70
2023-04-02T04:30:05.833Z,73.00
2023-04-02T04:32:39.202Z,72.90
2023-04-02T04:35:26.702Z,73.00
2023-04-02T04:38:15.743Z,72.90
2023-04-02T04:40:52.272Z,72.70
2023-04-02T04:43:43.884Z,72.30
2023-04-02T04:46:19.623Z,71.80
2023-04-02T04:48:53.086Z,72.10
2023-04-02T04:51:28.543Z,72.10
2023-04-02T04:53:56.370Z,72.00
2023-04-02T04:56:29.630Z,72.10
2023-04-02T04:59:17.595Z,71.80
2023-04-02T05:02:07.589Z,71.70
2023-04-02T05:04:41.597Z,71.60
2023-04-02T05:07:20.341Z,71.80
2023-04-02T05:10:17.378Z,71.70
2023-04-02T05:12:51.878Z,71.80
2023-04-02T05:15:29.203Z,71.80
2023-04-02T05:18:11.316Z,71.90
2023-04-02T05:21:34.436Z,71.90
2023-04-02T05:24:18.030Z,71.80
2023-04-02T05:26:47.996Z,71.70
2023-04-02T05:29:24.307Z,71.20
2023-04-02T05:32:03.567Z,71.20
2023-04-02T05:34:35.271Z,71.20
2023-04-02T05:37:06.948Z,71.20
2023-04-02T05:39:34.962Z,71.20
2023-04-02T05:42:04.234Z,70.90
2023-04-02T05:45:14.449Z,70.90
2023-04-02T05:47:44.507Z,70.50
2023-04-02T05:50:24.964Z,70.40
2023-04-02T05:53:00.973Z,70.40
2023-04-02T05:55:43.158Z,70.40
2023-04-02T05:58:38.327Z,69.80
2023-04-02T06:01:28.165Z,69.80
2023-04-02T06:04:17.593Z,69.80
2023-04-02T06:07:13.671Z,69.50
2023-04-02T06:10:05.969Z,69.30
2023-04-02T06:12:51.363Z,68.90
2023-04-02T06:15:22.969Z,68.90
2023-04-02T06:18:01.815Z,68.90
2023-04-02T06:20:29.257Z,68.70
2023-04-02T06:23:07.350Z,68.40
2023-04-02T06:25:40.024Z,68.00
2023-04-02T06:28:33.099Z,67.90
2023-04-02T06:31:06.393Z,67.60
2023-04-02T06:33:36.550Z,67.40
2023-04-02T06:36:05.409Z,67.40
2023-04-02T06:38:36.317Z,67.60
2023-04-02T06:41:12.602Z,67.70
2023-04-02T06:43:58.834Z,67.40
2023-04-02T06:46:59.131Z,67.30
2023-04-02T06:49:40.306Z,67.20
2023-04-02T06:52:21.489Z,67.00
2023-04-02T06:54:48.641Z,67.20
2023-04-02T06:57:16.690Z,67.10
2023-04-02T06:59:46.444Z,67.10
2023-04-02T07:02:26.473Z,66.90
2023-04-02T07:04:58.815Z,67.00
2023-04-02T07:07:25.827Z,66.60
2023-04-02T07:09:52.968Z,66.40
2023-04-02T07:12:24.735Z,66.20
2023-04-02T07:14:52.779Z,66.40
2023-04-02T07:17:21.051Z,66.60
2023-04-02T07:19:51.178Z,66.60
2023-04-02T07:22:20.825Z,66.50
2023-04-02T07:24:55.163Z,66.70
2023-04-02T07:27:22.191Z,66.70
2023-04-02T07:29:49.045Z,66.80
2023-04-02T07:32:16.030Z,66.70
2023-04-02T07:34:42.945Z,66.40
2023-04-02T07:37:14.245Z,66.50
2023-04-02T07:39:41.881Z,66.50
2023-04-02T07:42:08.774Z,66.70
2023-04-02T07:44:35.793Z,66.50
2023-04-02T07:47:02.743Z,66.40
2023-04-02T07:49:29.813Z,66.40
2023-04-02T07:51:56.697Z,66.30
2023-04-02T07:54:23.480Z,66.00
2023-04-02T07:56:50.742Z,66.10
2023-04-02T07:59:17.598Z,66.40
2023-04-02T08:01:44.561Z,66.60
2023-04-02T08:04:22.504Z,66.50
2023-04-02T08:06:50.435Z,66.70
2023-04-02T08:09:18.524Z,66.90
2023-04-02T08:11:46.663Z,67.00
2023-04-02T08:14:14.118Z,66.90
2023-04-02T08:16:53.119Z,67.10
2023-04-02T08:19:20.347Z,67.50
2023-04-02T08:21:50.608Z,67.20
2023-04-02T08:24:21.462Z,67.40
2023-04-02T08:26:49.858Z,67.40
2023-04-02T08:29:16.849Z,67.30
2023-04-02T08:31:45.374Z,67.00
2023-04-02T08:34:12.665Z,66.90
2023-04-02T08:36:43.481Z,66.90
2023-04-02T08:39:13.455Z,66.60
2023-04-02T08:41:58.317Z,66.80
2023-04-02T08:44:49.310Z,66.80
2023-04-02T08:47:19.115Z,66.70
2023-04-02T08:49:57.704Z,66.70
2023-04-02T08:52:32.470Z,66.60
2023-04-02T08:55:01.174Z,66.70
2023-04-02T08:57:36.887Z,66.70
2023-04-02T09:00:20.467Z,66.80
2023-04-02T09:02:55.053Z,66.70
2023-04-02T09:05:31.903Z,66.70
2023-04-02T09:08:03.255Z,66.50
2023-04-02T09:10:41.482Z,66.60
2023-04-02T09:13:23.284Z,66.70
2023-04-02T09:15:53.413Z,66.70
2023-04-02T09:18:20.745Z,66.30
2023-04-02T09:20:49.434Z,66.40
2023-04-02T09:23:25.563Z,66.50
2023-04-02T09:26:03.410Z,66.40
2023-04-02T09:28:31.262Z,66.40
2023-04-02T09:31:06.844Z,66.50
2023-04-02T09:33:47.284Z,66.20
2023-04-02T09:36:37.184Z,65.90
2023-04-02T09:39:12.953Z,65.90
2023-04-02T09:41:40.182Z,65.70
2023-04-02T09:44:26.199Z,65.50
2023-04-02T09:46:56.165Z,65.70
2023-04-02T09:49:25.564Z,66.00
2023-04-02T09:52:28.278Z,65.90
2023-04-02T09:55:20.118Z,65.60
2023-04-02T09:57:48.413Z,65.70
2023-04-02T10:00:30.451Z,65.40
2023-04-02T10:03:27.509Z,65.00
2023-04-02T10:06:09.985Z,64.60
2023-04-02T10:08:38.740Z,64.60
2023-04-02T10:11:12.326Z,64.80
2023-04-02T10:13:54.500Z,64.70
2023-04-02T10:16:39.740Z,64.60
2023-04-02T10:19:36.242Z,64.40
2023-04-02T10:22:14.908Z,64.40
2023-04-02T10:24:41.871Z,64.50
2023-04-02T10:27:25.708Z,64.10
2023-04-02T10:30:17.323Z,64.20
2023-04-02T10:32:57.588Z,63.60
2023-04-02T10:35:30.207Z,63.00
2023-04-02T10:38:31.560Z,61.60
2023-04-02T10:41:21.118Z,61.80
2023-04-02T10:44:09.155Z,62.10
2023-04-02T10:47:22.476Z,61.70
2023-04-02T10:50:21.267Z,60.90
2023-04-02T10:53:07.478Z,61.30
2023-04-02T10:55:42.516Z,61.00
2023-04-02T10:58:22.812Z,60.40
2023-04-02T11:00:52.155Z,60.60
2023-04-02T11:03:50.816Z,60.80
2023-04-02T11:06:25.467Z,60.00
2023-04-02T11:09:05.265Z,59.30
2023-04-02T11:11:42.850Z,58.50
2023-04-02T11:14:13.160Z,58.10
2023-04-02T11:16:43.923Z,58.30
2023-04-02T11:19:17.760Z,58.20
2023-04-02T11:22:03.176Z,56.40
2023-04-02T11:24:38.203Z,56.20
2023-04-02T11:27:31.371Z,56.40
2023-04-02T11:30:18.033Z,56.20
2023-04-02T11:32:49.865Z,55.30
2023-04-02T11:35:32.097Z,56.20
2023-04-02T11:38:23.155Z,55.70
2023-04-02T11:40:54.745Z,55.20
2023-04-02T11:43:34.008Z,55.10
2023-04-02T11:46:30.021Z,55.00
2023-04-02T11:49:35.868Z,53.80
2023-04-02T11:52:11.984Z,53.20
2023-04-02T11:54:39.598Z,53.20
2023-04-02T11:57:43.007Z,52.80
2023-04-02T12:00:24.431Z,53.00
2023-04-02T12:03:28.545Z,52.20
2023-04-02T12:06:06.318Z,51.80
2023-04-02T12:09:04.972Z,52.40
2023-04-02T12:11:41.993Z,50.90
2023-04-02T12:14:30.756Z,50.80
2023-04-02T12:16:58.297Z,50.40
2023-04-02T12:19:26.591Z,49.60
2023-04-02T12:21:53.888Z,49.50
2023-04-02T12:24:23.392Z,49.70
2023-04-02T12:27:15.381Z,49.60
2023-04-02T12:29:43.086Z,49.30
2023-04-02T12:32:22.129Z,48.90
2023-04-02T12:34:51.709Z,49.00
2023-04-02T12:37:28.134Z,49.20
2023-04-02T12:40:07.453Z,49.30
2023-04-02T12:42:37.106Z,48.90
2023-04-02T12:45:05.515Z,48.40
2023-04-02T12:47:33.098Z,48.00
2023-04-02T12:50:02.034Z,47.40
2023-04-02T12:52:29.577Z,47.70
2023-04-02T12:54:59.703Z,47.90
2023-04-02T12:57:26.645Z,47.80
2023-04-02T12:59:55.541Z,47.00
2023-04-02T13:02:31.802Z,47.30
2023-04-02T13:05:01.294Z,47.40
2023-04-02T13:07:33.687Z,47.50
2023-04-02T13:10:24.056Z,46.50
2023-04-02T13:12:59.716Z,45.90
2023-04-02T13:15:32.434Z,45.60
2023-04-02T13:18:04.665Z,46.00
2023-04-02T13:20:37.500Z,46.10
2023-04-02T13:23:24.945Z,45.40
2023-04-02T13:25:52.108Z,45.50
2023-04-02T13:28:19.819Z,46.10
2023-04-02T13:30:47.315Z,45.70
2023-04-02T13:33:14.914Z,45.30
2023-04-02T13:35:42.438Z,44.20
2023-04-02T13:38:09.780Z,44.10
2023-04-02T13:40:40.064Z,43.70
2023-04-02T13:43:08.068Z,43.90
2023-04-02T13:45:39.087Z,43.10
2023-04-02T13:48:06.243Z,43.50
2023-04-02T13:50:35.322Z,43.60
2023-04-02T13:53:10.654Z,43.60
2023-04-02T13:55:40.625Z,43.90
2023-04-02T13:58:07.545Z,43.10
2023-04-02T14:00:37.506Z,42.90
2023-04-02T14:03:21.745Z,42.40
2023-04-02T14:06:02.943Z,42.40
2023-04-02T14:09:06.588Z,41.90
2023-04-02T14:11:47.456Z,42.10
2023-04-02T14:14:31.202Z,42.60
2023-04-02T14:17:09.742Z,41.80
2023-04-02T14:20:04.877Z,41.60
2023-04-02T14:22:38.020Z,41.60
2023-04-02T14:25:33.084Z,42.10
2023-04-02T14:28:27.458Z,41.90
2023-04-02T14:31:24.696Z,41.80
2023-04-02T14:34:15.710Z,41.70
2023-04-02T14:36:53.179Z,41.60
2023-04-02T14:39:47.246Z,41.60
2023-04-02T14:42:22.063Z,41.90
2023-04-02T14:45:01.313Z,41.80
2023-04-02T14:47:45.217Z,41.60
2023-04-02T14:50:17.369Z,41.20
2023-04-02T14:52:47.520Z,41.50
2023-04-02T14:55:32.787Z,41.00
2023-04-02T14:58:04.169Z,41.00
2023-04-02T15:00:51.568Z,41.00
2023-04-02T15:03:48.316Z,40.80
2023-04-02T15:06:23.476Z,41.20
2023-04-02T15:09:08.447Z,40.80
2023-04-02T15:11:47.157Z,41.00
2023-04-02T15:14:17.227Z,41.20
2023-04-02T15:16:44.994Z,41.10
2023-04-02T15:19:17.834Z,41.20
2023-04-02T15:22:08.869Z,40.90
2023-04-02T15:24:50.934Z,40.90
2023-04-02T15:28:03.373Z,41.00
2023-04-02T15:30:43.018Z,40.50
2023-04-02T15:33:28.061Z,40.90
2023-04-02T15:36:07.870Z,40.80
2023-04-02T15:38:43.564Z,41.00
2023-04-02T15:41:23.426Z,40.80
2023-04-02T15:44:16.212Z,41.10
2023-04-02T15:46:56.142Z,41.30
2023-04-02T15:49:42.753Z,40.50
2023-04-02T15:52:22.823Z,40.50
2023-04-02T15:54:56.798Z,40.40
2023-04-02T15:57:50.954Z,40.90
2023-04-02T16:00:23.846Z,41.00
2023-04-02T16:03:17.199Z,40.70
2023-04-02T16:06:03.131Z,40.80
2023-04-02T16:09:02.211Z,41.40
2023-04-02T16:11:29.574Z,41.50
2023-04-02T16:14:22.711Z,40.50
2023-04-02T16:16:51.689Z,40.90
2023-04-02T16:19:35.706Z,40.80
2023-04-02T16:22:20.427Z,41.20
2023-04-02T16:24:53.128Z,40.80
2023-04-02T16:27:29.494Z,40.90
2023-04-02T16:30:41.991Z,41.20
2023-04-02T16:33:21.018Z,41.40
2023-04-02T16:36:09.868Z,41.60
2023-04-02T16:38:45.863Z,41.80
2023-04-02T16:41:26.282Z,41.30
2023-04-02T16:44:25.674Z,41.50
2023-04-02T16:47:17.218Z,41.70
2023-04-02T16:49:55.181Z,41.90
2023-04-02T16:52:32.288Z,42.00
2023-04-02T16:55:05.742Z,42.10
2023-04-02T16:57:51.203Z,42.20
2023-04-02T17:00:48.511Z,42.10
2023-04-02T17:03:44.941Z,42.20
2023-04-02T17:06:43.600Z,42.30
2023-04-02T17:09:16.585Z,42.40
2023-04-02T17:11:59.367Z,42.60
2023-04-02T17:14:47.310Z,42.80
2023-04-02T17:17:16.594Z,42.90
2023-04-02T17:19:44.836Z,43.10
2023-04-02T17:22:21.911Z,43.30
2023-04-02T17:24:57.869Z,43.50
2023-04-02T17:27:43.414Z,43.80
2023-04-02T17:30:19.731Z,44.00
2023-04-02T17:32:46.802Z,44.20
2023-04-02T17:35:59.379Z,44.30
2023-04-02T17:38:32.542Z,44.30
2023-04-02T17:41:19.555Z,44.50
2023-04-02T17:44:27.014Z,45.10
2023-04-02T17:47:01.463Z,45.00
2023-04-02T17:49:51.251Z,45.20
2023-04-02T17:52:47.789Z,45.30
2023-04-02T17:55:42.558Z,45.50
2023-04-02T17:58:44.704Z,45.70
2023-04-02T18:01:31.381Z,45.80
2023-04-02T18:04:04.266Z,45.80
2023-04-02T18:06:43.679Z,46.10
2023-04-02T18:09:20.641Z,46.20
2023-04-02T18:12:24.309Z,46.60
2023-04-02T18:15:17.590Z,46.60
2023-04-02T18:18:01.385Z,46.50
2023-04-02T18:20:28.500Z,46.80
2023-04-02T18:22:55.337Z,47.00
2023-04-02T18:25:50.396Z,46.90
2023-04-02T18:28:35.256Z,47.00
2023-04-02T18:31:27.069Z,47.20
2023-04-02T18:34:09.845Z,47.20
2023-04-02T18:36:51.127Z,47.30
2023-04-02T18:39:46.743Z,47.40
2023-04-02T18:42:48.339Z,47.60
2023-04-02T18:45:24.874Z,47.80
2023-04-02T18:48:12.496Z,47.90
2023-04-02T18:50:40.881Z,48.00
2023-04-02T18:53:21.530Z,48.00
2023-04-02T18:56:11.857Z,48.20
2023-04-02T18:58:49.362Z,48.30
2023-04-02T19:01:22.316Z,48.50
2023-04-02T19:03:54.857Z,48.70
2023-04-02T19:06:29.493Z,48.70
2023-04-02T19:08:59.093Z,48.70
2023-04-02T19:11:31.202Z,48.80
2023-04-02T19:14:04.624Z,48.80
2023-04-02T19:16:44.295Z,48.90
2023-04-02T19:19:14.638Z,49.10
2023-04-02T19:22:00.583Z,49.30
2023-04-02T19:25:01.636Z,49.50
2023-04-02T19:27:34.052Z,49.60
2023-04-02T19:30:07.462Z,49.70
2023-04-02T19:32:49.207Z,49.60
2023-04-02T19:35:35.065Z,49.50
2023-04-02T19:38:27.913Z,49.50
2023-04-02T19:40:58.817Z,49.60
2023-04-02T19:43:26.074Z,49.80
2023-04-02T19:45:54.482Z,50.00
2023-04-02T19:48:35.768Z,50.10
2023-04-02T19:51:02.719Z,50.20
2023-04-02T19:53:30.416Z,50.20
2023-04-02T19:55:57.679Z,50.30
2023-04-02T19:58:30.606Z,50.50
2023-04-02T20:00:58.354Z,50.70
2023-04-02T20:03:25.592Z,50.80
2023-04-02T20:05:53.203Z,50.80
2023-04-02T20:08:20.678Z,50.80
2023-04-02T20:10:47.832Z,50.90
2023-04-02T20:13:14.722Z,51.00
2023-04-02T20:15:41.812Z,51.10
2023-04-02T20:18:10.645Z,51.20
2023-04-02T20:20:39.543Z,51.40
2023-04-02T20:23:06.730Z,51.50
2023-04-02T20:25:33.646Z,51.40
2023-04-02T20:28:04.041Z,51.50
2023-04-02T20:30:32.560Z,51.70
2023-04-02T20:33:00.204Z,51.70
2023-04-02T20:35:27.462Z,51.70
2023-04-02T20:37:54.648Z,51.80
2023-04-02T20:40:21.946Z,51.90
2023-04-02T20:42:48.771Z,51.90
2023-04-02T20:45:15.871Z,52.10
2023-04-02T20:47:43.435Z,52.20
2023-04-02T20:50:11.366Z,52.20
2023-04-02T20:52:40.614Z,52.30
2023-04-02T20:55:08.399Z,52.40
2023-04-02T20:57:35.185Z,52.40
2023-04-02T21:00:06.066Z,52.60
2023-04-02T21:02:33.158Z,52.70
2023-04-02T21:05:00.514Z,52.90
2023-04-02T21:07:27.449Z,52.90
2023-04-02T21:09:54.290Z,53.00
2023-04-02T21:12:21.245Z,52.90
2023-04-02T21:14:48.709Z,53.00
2023-04-02T21:17:16.092Z,53.20
2023-04-02T21:19:43.142Z,53.30
2023-04-02T21:22:10.719Z,53.30
2023-04-02T21:24:37.803Z,53.20
2023-04-02T21:27:04.831Z,53.10
2023-04-02T21:29:31.768Z,53.20
2023-04-02T21:32:01.369Z,53.20
2023-04-02T21:34:30.477Z,53.20
2023-04-02T21:36:57.514Z,53.30
2023-04-02T21:39:24.412Z,53.20
2023-04-02T21:41:53.328Z,53.30
2023-04-02T21:44:22.318Z,53.30
2023-04-02T21:46:51.083Z,53.20
2023-04-02T21:49:22.587Z,53.30
2023-04-02T21:51:51.793Z,53.40
2023-04-02T21:54:18.736Z,53.30
2023-04-02T21:56:46.502Z,53.30
2023-04-02T21:59:15.529Z,53.30
2023-04-02T22:01:51.260Z,53.30
2023-04-02T22:04:21.341Z,53.30
2023-04-02T22:06:48.823Z,53.40
2023-04-02T22:09:18.487Z,53.30
2023-04-02T22:11:48.544Z,53.30
2023-04-02T22:14:15.806Z,53.30
2023-04-02T22:16:42.829Z,53.30
2023-04-02T22:19:12.703Z,53.30
2023-04-02T22:21:39.847Z,53.20
2023-04-02T22:24:09.215Z,53.30
2023-04-02T22:26:36.659Z,53.40
2023-04-02T22:29:04.626Z,53.30
2023-04-02T22:31:33.505Z,53.30
2023-04-02T22:34:02.137Z,53.30
2023-04-02T22:36:29.513Z,53.10
2023-04-02T22:38:57.934Z,53.20
2023-04-02T22:41:27.966Z,53.20
2023-04-02T22:43:59.639Z,53.10
2023-04-02T22:46:27.879Z,53.00
2023-04-02T22:48:55.892Z,52.90
2023-04-02T22:51:24.411Z,52.90
2023-04-02T22:53:53.987Z,52.90
2023-04-02T22:56:24.519Z,52.80
2023-04-02T22:58:51.357Z,52.80
2023-04-02T23:01:21.883Z,52.80
2023-04-02T23:03:49.192Z,52.70
2023-04-02T23:06:18.136Z,52.60
2023-04-02T23:08:46.093Z,52.60
2023-04-02T23:11:21.427Z,52.60
2023-04-02T23:13:50.367Z,52.60
2023-04-02T23:16:17.941Z,52.60
2023-04-02T23:18:48.595Z,52.60
2023-04-02T23:21:17.139Z,52.50
2023-04-02T23:23:44.425Z,52.60
2023-04-02T23:26:15.681Z,52.40
2023-04-02T23:28:43.310Z,52.50
2023-04-02T23:31:14.563Z,52.60
2023-04-02T23:33:41.942Z,52.60
2023-04-02T23:36:18.819Z,52.70
2023-04-02T23:38:45.792Z,52.80
2023-04-02T23:41:15.418Z,52.70
2023-04-02T23:43:42.844Z,52.80
2023-04-02T23:46:09.945Z,52.90
2023-04-02T23:48:36.754Z,52.90
2023-04-02T23:51:03.939Z,53.00
2023-04-02T23:53:30.769Z,52.90
2023-04-02T23:55:57.776Z,53.00
2023-04-02T23:58:24.652Z,52.90
